createdAt,value
2019-05-13T00:02:13.328Z,8.70
2019-05-13T00:04:44.301Z,8.70
2019-05-13T00:07:14.838Z,8.70
2019-05-13T00:09:45.219Z,8.70
2019-05-13T00:12:15.574Z,8.70
2019-05-13T00:14:45.962Z,8.60
2019-05-13T00:17:16.318Z,8.60
2019-05-13T00:19:49.179Z,8.60
2019-05-13T00:22:19.507Z,8.70
2019-05-13T00:24:49.893Z,8.60
2019-05-13T00:27:20.287Z,8.50
2019-05-13T00:29:50.658Z,8.60
2019-05-13T00:32:20.994Z,8.50
2019-05-13T00:34:53.308Z,8.60
2019-05-13T00:37:24.459Z,8.60
2019-05-13T00:39:54.945Z,8.50
2019-05-13T00:42:25.286Z,8.60
2019-05-13T00:44:55.621Z,8.50
2019-05-13T00:47:26.002Z,8.60
2019-05-13T00:49:56.342Z,8.50
2019-05-13T00:52:26.711Z,8.60
2019-05-13T00:54:57.097Z,8.50
2019-05-13T00:57:27.486Z,8.40
2019-05-13T00:59:57.846Z,8.50
2019-05-13T01:02:28.206Z,8.50
2019-05-13T01:04:58.570Z,8.50
2019-05-13T01:07:29.134Z,8.50
2019-05-13T01:09:59.579Z,8.50
2019-05-13T01:12:29.982Z,8.50
2019-05-13T01:15:00.322Z,8.40
2019-05-13T01:17:30.724Z,8.40
2019-05-13T01:20:01.078Z,8.40
2019-05-13T01:22:31.470Z,8.30
2019-05-13T01:25:03.906Z,8.30
2019-05-13T01:27:33.915Z,8.30
2019-05-13T01:30:04.588Z,8.30
2019-05-13T01:32:34.951Z,8.20
2019-05-13T01:35:05.452Z,8.20
2019-05-13T01:37:42.113Z,8.20
2019-05-13T01:40:08.742Z,8.20
2019-05-13T01:42:39.102Z,8.10
2019-05-13T01:45:09.757Z,8.10
2019-05-13T01:47:40.146Z,8.00
2019-05-13T01:50:10.711Z,8.10
2019-05-13T01:52:41.128Z,8.10
2019-05-13T01:55:14.286Z,7.90
2019-05-13T01:57:44.478Z,7.80
2019-05-13T02:00:15.678Z,7.90
2019-05-13T02:02:46.052Z,7.90
2019-05-13T02:05:16.399Z,7.80
2019-05-13T02:07:57.019Z,7.80
2019-05-13T02:10:37.778Z,7.70
2019-05-13T02:13:08.135Z,7.70
2019-05-13T02:15:38.485Z,7.60
2019-05-13T02:18:08.921Z,7.60
2019-05-13T02:20:39.278Z,7.60
2019-05-13T02:23:10.817Z,7.50
2019-05-13T02:25:43.461Z,7.50
2019-05-13T02:28:13.927Z,7.60
2019-05-13T02:30:45.499Z,7.60
2019-05-13T02:33:16.205Z,7.60
2019-05-13T02:35:46.554Z,7.50
2019-05-13T02:38:24.092Z,7.50
2019-05-13T02:40:52.395Z,7.40
2019-05-13T02:43:23.153Z,7.30
2019-05-13T02:45:54.314Z,7.30
2019-05-13T02:48:24.970Z,7.30
2019-05-13T02:50:55.928Z,7.20
2019-05-13T02:53:26.341Z,7.30
2019-05-13T02:55:56.728Z,7.30
2019-05-13T02:58:27.195Z,7.30
2019-05-13T03:00:57.588Z,7.20
2019-05-13T03:03:28.021Z,7.30
2019-05-13T03:05:58.381Z,7.40
2019-05-13T03:08:46.177Z,7.40
2019-05-13T03:11:02.919Z,7.20
2019-05-13T03:13:33.285Z,7.10
2019-05-13T03:16:13.653Z,7.00
2019-05-13T03:18:44.329Z,7.10
2019-05-13T03:21:14.690Z,7.10
2019-05-13T03:23:45.066Z,7.10
2019-05-13T03:26:15.460Z,7.10
2019-05-13T03:28:45.811Z,7.10
2019-05-13T03:31:17.725Z,7.10
2019-05-13T03:33:48.271Z,7.00
2019-05-13T03:36:18.671Z,7.00
2019-05-13T03:39:01.521Z,7.00
2019-05-13T03:41:22.891Z,7.00
2019-05-13T03:43:55.908Z,7.00
2019-05-13T03:46:29.243Z,7.00
2019-05-13T03:49:02.515Z,6.90
2019-05-13T03:51:33.106Z,6.90
2019-05-13T03:54:03.495Z,7.00
2019-05-13T03:56:33.922Z,7.00
2019-05-13T03:59:04.358Z,7.10
2019-05-13T04:01:34.740Z,7.10
2019-05-13T04:04:05.196Z,7.10
2019-05-13T04:06:35.576Z,7.10
2019-05-13T04:09:25.134Z,7.00
2019-05-13T04:11:41.591Z,7.00
2019-05-13T04:14:12.462Z,7.00
2019-05-13T04:16:43.751Z,6.90
2019-05-13T04:19:14.391Z,6.90
2019-05-13T04:21:44.841Z,7.00
2019-05-13T04:24:15.222Z,7.00
2019-05-13T04:26:45.631Z,7.00
2019-05-13T04:29:15.954Z,7.00
2019-05-13T04:31:46.342Z,7.00
2019-05-13T04:34:16.843Z,7.00
2019-05-13T04:36:47.285Z,7.00
2019-05-13T04:39:36.706Z,7.00
2019-05-13T04:41:52.693Z,6.90
2019-05-13T04:44:23.977Z,6.90
2019-05-13T04:46:53.867Z,7.10
2019-05-13T04:49:24.451Z,7.10
2019-05-13T04:51:54.915Z,7.10
2019-05-13T04:54:25.266Z,7.00
2019-05-13T04:56:55.635Z,7.10
2019-05-13T04:59:25.983Z,7.10
2019-05-13T05:02:49.003Z,7.10
2019-05-13T05:05:26.466Z,7.10
2019-05-13T05:08:37.351Z,7.30
2019-05-13T05:11:33.998Z,7.30
2019-05-13T05:14:27.113Z,7.40
2019-05-13T05:17:44.705Z,7.40
2019-05-13T05:20:41.617Z,7.50
2019-05-13T05:23:34.854Z,7.50
2019-05-13T05:26:37.631Z,7.50
2019-05-13T05:29:48.282Z,7.60
2019-05-13T05:32:47.205Z,7.60
2019-05-13T05:36:01.949Z,7.70
2019-05-13T05:39:01.887Z,7.80
2019-05-13T05:41:34.510Z,7.90
2019-05-13T05:44:07.160Z,7.90
2019-05-13T05:46:42.474Z,7.90
2019-05-13T05:49:12.800Z,8.10
2019-05-13T05:51:45.269Z,8.10
2019-05-13T05:54:17.121Z,8.20
2019-05-13T05:56:51.942Z,8.30
2019-05-13T05:59:23.735Z,8.30
2019-05-13T06:01:57.135Z,8.40
2019-05-13T06:04:27.623Z,8.50
2019-05-13T06:06:58.187Z,8.60
2019-05-13T06:09:28.540Z,8.70
2019-05-13T06:11:58.914Z,8.70
2019-05-13T06:14:29.258Z,8.80
2019-05-13T06:17:02.420Z,9.00
2019-05-13T06:19:32.037Z,9.10
2019-05-13T06:22:02.839Z,9.10
2019-05-13T06:24:33.415Z,9.30
2019-05-13T06:27:03.855Z,9.40
2019-05-13T06:29:34.551Z,9.60
2019-05-13T06:32:17.757Z,9.70
2019-05-13T06:34:37.490Z,9.80
2019-05-13T06:37:08.005Z,10.00
2019-05-13T06:39:38.366Z,10.00
2019-05-13T06:42:08.753Z,10.20
2019-05-13T06:44:39.122Z,10.40
2019-05-13T06:47:11.384Z,10.50
2019-05-13T06:49:42.809Z,10.60
2019-05-13T06:52:13.440Z,10.80
2019-05-13T06:54:43.807Z,11.10
2019-05-13T06:57:14.247Z,11.30
2019-05-13T06:59:45.029Z,11.50
2019-05-13T07:02:27.117Z,11.60
2019-05-13T07:04:57.490Z,11.80
2019-05-13T07:07:27.898Z,12.00
2019-05-13T07:09:58.248Z,12.10
2019-05-13T07:12:31.018Z,12.30
2019-05-13T07:15:02.488Z,12.40
2019-05-13T07:17:32.810Z,12.60
2019-05-13T07:20:03.401Z,12.80
2019-05-13T07:22:33.786Z,12.90
2019-05-13T07:25:04.178Z,13.10
2019-05-13T07:27:34.558Z,13.20
2019-05-13T07:30:05.625Z,13.20
2019-05-13T07:32:35.995Z,13.40
2019-05-13T07:35:07.426Z,13.60
2019-05-13T07:37:42.202Z,13.70
2019-05-13T07:40:13.082Z,13.90
2019-05-13T07:42:43.458Z,13.90
2019-05-13T07:45:14.663Z,14.10
2019-05-13T07:47:44.995Z,14.30
2019-05-13T07:50:15.404Z,14.30
2019-05-13T07:52:45.743Z,14.30
2019-05-13T07:55:16.143Z,14.50
2019-05-13T07:57:46.514Z,14.50
2019-05-13T08:00:17.129Z,14.60
2019-05-13T08:02:47.494Z,14.70
2019-05-13T08:05:17.877Z,14.70
2019-05-13T08:07:48.294Z,14.70
2019-05-13T08:10:21.772Z,14.50
2019-05-13T08:12:51.702Z,14.70
2019-05-13T08:15:22.607Z,14.90
2019-05-13T08:17:53.113Z,15.10
2019-05-13T08:20:23.489Z,15.20
2019-05-13T08:22:53.898Z,15.30
2019-05-13T08:25:24.266Z,15.20
2019-05-13T08:27:54.641Z,15.30
2019-05-13T08:30:25.023Z,15.40
2019-05-13T08:32:55.469Z,15.50
2019-05-13T08:35:25.813Z,15.80
2019-05-13T08:37:56.180Z,15.90
2019-05-13T08:40:31.733Z,15.90
2019-05-13T08:43:01.789Z,15.80
2019-05-13T08:45:32.182Z,15.90
2019-05-13T08:48:02.742Z,16.10
2019-05-13T08:50:33.156Z,16.20
2019-05-13T08:53:03.517Z,16.20
2019-05-13T08:55:33.905Z,16.20
2019-05-13T08:58:04.273Z,16.50
2019-05-13T09:00:54.623Z,16.50
2019-05-13T09:03:25.398Z,16.80
2019-05-13T09:05:55.823Z,17.10
2019-05-13T09:08:26.714Z,17.30
2019-05-13T09:10:58.169Z,17.40
2019-05-13T09:13:28.562Z,17.60
2019-05-13T09:15:58.912Z,17.70
2019-05-13T09:18:31.287Z,17.60
2019-05-13T09:21:02.550Z,17.60
2019-05-13T09:23:33.134Z,17.60
2019-05-13T09:26:03.552Z,17.60
2019-05-13T09:28:33.915Z,17.70
2019-05-13T09:31:04.303Z,18.00
2019-05-13T09:33:34.684Z,18.20
2019-05-13T09:36:05.059Z,18.60
2019-05-13T09:38:35.430Z,18.40
2019-05-13T09:41:05.885Z,18.20
2019-05-13T09:43:36.350Z,17.70
2019-05-13T09:46:06.746Z,18.00
2019-05-13T09:48:37.132Z,18.80
2019-05-13T09:51:07.510Z,19.90
2019-05-13T09:53:37.861Z,19.70
2019-05-13T09:56:08.257Z,19.90
2019-05-13T09:58:38.833Z,20.70
2019-05-13T10:01:11.458Z,20.00
2019-05-13T10:03:53.810Z,20.40
2019-05-13T10:06:13.490Z,21.60
2019-05-13T10:08:43.843Z,22.50
2019-05-13T10:11:14.248Z,22.20
2019-05-13T10:13:44.606Z,21.80
2019-05-13T10:16:15.009Z,21.90
2019-05-13T10:18:45.371Z,21.50
2019-05-13T10:21:15.870Z,20.50
2019-05-13T10:23:46.330Z,19.80
2019-05-13T10:26:16.733Z,19.40
2019-05-13T10:28:47.877Z,19.10
2019-05-13T10:31:18.278Z,18.80
2019-05-13T10:33:50.868Z,18.60
2019-05-13T10:36:22.273Z,18.60
2019-05-13T10:38:52.852Z,18.50
2019-05-13T10:41:23.302Z,18.20
2019-05-13T10:43:53.725Z,18.10
2019-05-13T10:46:24.117Z,17.70
2019-05-13T10:48:54.561Z,17.50
2019-05-13T10:51:25.026Z,17.10
2019-05-13T10:53:59.513Z,16.80
2019-05-13T10:56:27.593Z,16.90
2019-05-13T10:58:58.064Z,16.70
2019-05-13T11:01:28.470Z,16.60
2019-05-13T11:03:58.826Z,16.50
2019-05-13T11:06:29.258Z,16.30
2019-05-13T11:09:02.060Z,16.30
2019-05-13T11:11:33.052Z,16.30
2019-05-13T11:14:10.871Z,16.30
2019-05-13T11:16:35.939Z,16.60
2019-05-13T11:19:06.291Z,16.90
2019-05-13T11:21:36.671Z,17.20
2019-05-13T11:24:07.286Z,17.10
2019-05-13T11:26:37.779Z,17.10
2019-05-13T11:29:08.186Z,17.10
2019-05-13T11:31:38.584Z,17.30
2019-05-13T11:34:09.058Z,17.40
2019-05-13T11:36:43.092Z,17.40
2019-05-13T11:39:12.900Z,17.20
2019-05-13T11:41:43.687Z,17.30
2019-05-13T11:44:16.672Z,17.50
2019-05-13T11:46:46.160Z,17.60
2019-05-13T11:49:16.530Z,17.60
2019-05-13T11:51:47.330Z,17.60
2019-05-13T11:54:17.762Z,17.60
2019-05-13T11:56:50.531Z,17.60
2019-05-13T11:59:21.972Z,17.40
2019-05-13T12:01:53.769Z,17.20
2019-05-13T12:04:24.449Z,17.20
2019-05-13T12:06:55.048Z,17.20
2019-05-13T12:09:25.458Z,17.30
2019-05-13T12:11:56.011Z,17.40
2019-05-13T12:14:42.823Z,17.50
2019-05-13T12:16:58.510Z,17.60
2019-05-13T12:19:28.885Z,17.70
2019-05-13T12:22:02.311Z,17.60
2019-05-13T12:24:31.325Z,17.40
2019-05-13T12:27:03.640Z,17.30
2019-05-13T12:29:33.830Z,17.30
2019-05-13T12:32:04.274Z,17.40
2019-05-13T12:34:40.635Z,17.40
2019-05-13T12:37:06.834Z,17.60
2019-05-13T12:39:37.271Z,17.80
2019-05-13T12:42:07.666Z,17.80
2019-05-13T12:44:59.960Z,17.90
2019-05-13T12:47:12.115Z,18.00
2019-05-13T12:49:43.808Z,17.90
2019-05-13T12:52:14.669Z,17.80
2019-05-13T12:54:45.110Z,18.00
2019-05-13T12:57:16.437Z,18.00
2019-05-13T12:59:46.970Z,18.00
2019-05-13T13:02:17.369Z,17.90
2019-05-13T13:07:21.626Z,17.70
2019-05-13T13:09:53.645Z,17.60
2019-05-13T13:12:33.979Z,17.70
2019-05-13T13:14:56.197Z,17.90
2019-05-13T13:17:26.574Z,18.00
2019-05-13T13:20:04.760Z,18.00
2019-05-13T13:22:31.425Z,17.80
2019-05-13T13:25:04.945Z,17.80
2019-05-13T13:28:00.030Z,17.90
2019-05-13T13:30:08.620Z,17.90
2019-05-13T13:32:38.560Z,17.70
2019-05-13T13:35:09.301Z,17.40
2019-05-13T13:37:45.046Z,17.40
2019-05-13T13:40:12.189Z,17.50
2019-05-13T13:42:43.336Z,17.70
2019-05-13T13:45:14.092Z,17.60
2019-05-13T13:47:45.812Z,17.50
2019-05-13T13:50:16.329Z,17.50
2019-05-13T13:52:46.817Z,17.50
2019-05-13T13:55:17.214Z,17.50
2019-05-13T13:57:47.666Z,17.40
2019-05-13T14:00:34.581Z,17.50
2019-05-13T14:02:54.076Z,17.70
2019-05-13T14:05:24.711Z,17.70
2019-05-13T14:06:35.512Z,17.80
2019-05-13T14:07:54.377Z,17.50
2019-05-13T14:10:24.758Z,17.50
2019-05-13T14:12:55.260Z,17.50
2019-05-13T14:15:25.659Z,17.60
2019-05-13T14:17:56.365Z,17.70
2019-05-13T14:20:26.745Z,17.70
2019-05-13T14:22:58.201Z,17.40
2019-05-13T14:25:28.683Z,17.60
2019-05-13T14:27:59.063Z,17.60
2019-05-13T14:30:31.284Z,17.30
2019-05-13T14:33:02.306Z,17.20
2019-05-13T14:35:32.892Z,17.20
2019-05-13T14:38:03.290Z,17.30
2019-05-13T14:40:33.674Z,17.30
2019-05-13T14:43:04.064Z,17.30
2019-05-13T14:45:34.469Z,17.20
2019-05-13T14:48:04.841Z,17.10
2019-05-13T14:50:35.225Z,17.00
2019-05-13T14:53:05.597Z,17.00
2019-05-13T14:55:36.023Z,17.10
2019-05-13T14:58:06.872Z,17.00
2019-05-13T15:00:37.311Z,16.90
2019-05-13T15:03:07.789Z,16.80
2019-05-13T15:05:38.194Z,16.60
2019-05-13T15:08:08.619Z,16.60
2019-05-13T15:10:41.752Z,16.70
2019-05-13T15:13:11.541Z,16.80
2019-05-13T15:15:42.237Z,16.80
2019-05-13T15:18:12.867Z,16.80
2019-05-13T15:20:43.346Z,16.70
2019-05-13T15:23:13.749Z,16.60
2019-05-13T15:25:44.135Z,16.50
2019-05-13T15:28:14.609Z,16.50
2019-05-13T15:30:45.227Z,16.40
2019-05-13T15:33:15.652Z,16.30
2019-05-13T15:35:46.128Z,16.30
2019-05-13T15:38:16.701Z,16.30
2019-05-13T15:40:47.217Z,16.40
2019-05-13T15:43:17.594Z,16.50
2019-05-13T15:45:48.018Z,16.50
2019-05-13T15:48:18.424Z,16.50
2019-05-13T15:50:51.368Z,16.60
2019-05-13T15:53:21.578Z,16.60
2019-05-13T15:55:52.122Z,16.50
2019-05-13T15:58:38.076Z,16.50
2019-05-13T16:00:54.567Z,16.40
2019-05-13T16:03:25.328Z,16.30
2019-05-13T16:05:55.941Z,16.20
2019-05-13T16:08:26.425Z,16.30
2019-05-13T16:10:56.894Z,16.40
2019-05-13T16:13:27.468Z,16.40
2019-05-13T16:15:58.025Z,16.50
2019-05-13T16:18:28.401Z,16.60
2019-05-13T16:21:01.270Z,16.50
2019-05-13T16:23:32.323Z,16.40
2019-05-13T16:26:03.373Z,16.40
2019-05-13T16:28:33.828Z,16.30
2019-05-13T16:31:04.235Z,16.30
2019-05-13T16:33:34.621Z,16.10
2019-05-13T16:36:05.073Z,16.10
2019-05-13T16:38:35.464Z,16.00
2019-05-13T16:41:05.911Z,15.90
2019-05-13T16:43:36.689Z,15.90
2019-05-13T16:46:07.409Z,15.80
2019-05-13T16:48:37.897Z,15.80
2019-05-13T16:51:08.486Z,15.70
2019-05-13T16:53:38.874Z,15.70
2019-05-13T16:56:09.446Z,15.70
2019-05-13T16:58:41.711Z,15.70
2019-05-13T17:01:12.375Z,15.60
2019-05-13T17:03:42.793Z,15.60
2019-05-13T17:06:13.198Z,15.60
2019-05-13T17:08:43.698Z,15.60
2019-05-13T17:11:14.425Z,15.50
2019-05-13T17:13:44.841Z,15.50
2019-05-13T17:16:15.226Z,15.40
2019-05-13T17:18:45.631Z,15.20
2019-05-13T17:21:16.079Z,15.20
2019-05-13T17:23:46.531Z,15.10
2019-05-13T17:26:16.970Z,15.10
2019-05-13T17:28:47.422Z,15.10
2019-05-13T17:31:17.884Z,15.00
2019-05-13T17:33:48.287Z,14.90
2019-05-13T17:36:18.734Z,14.80
2019-05-13T17:38:49.149Z,14.80
2019-05-13T17:41:21.335Z,14.80
2019-05-13T17:43:51.944Z,14.70
2019-05-13T17:46:22.399Z,14.80
2019-05-13T17:48:52.879Z,14.80
2019-05-13T17:51:23.326Z,14.70
2019-05-13T17:53:53.801Z,14.70
2019-05-13T17:56:24.243Z,14.70
2019-05-13T17:58:54.745Z,14.60
2019-05-13T18:01:25.193Z,14.60
2019-05-13T18:03:55.611Z,14.60
2019-05-13T18:06:26.118Z,14.50
2019-05-13T18:08:56.498Z,14.40
2019-05-13T18:11:26.987Z,14.40
2019-05-13T18:13:57.368Z,14.40
2019-05-13T18:16:27.802Z,14.30
2019-05-13T18:18:58.248Z,14.30
2019-05-13T18:21:28.727Z,14.30
2019-05-13T18:24:01.229Z,14.30
2019-05-13T18:26:32.022Z,14.30
2019-05-13T18:29:02.606Z,14.30
2019-05-13T18:31:33.440Z,14.20
2019-05-13T18:34:03.873Z,14.20
2019-05-13T18:36:34.374Z,14.10
2019-05-13T18:39:06.664Z,14.10
2019-05-13T18:41:37.216Z,14.10
2019-05-13T18:44:07.603Z,14.00
2019-05-13T18:46:38.118Z,13.90
2019-05-13T18:49:08.573Z,13.90
2019-05-13T18:51:39.079Z,13.80
2019-05-13T18:54:11.696Z,13.70
2019-05-13T18:56:41.910Z,13.60
2019-05-13T18:59:12.716Z,13.50
2019-05-13T19:01:43.253Z,13.50
2019-05-13T19:04:13.751Z,13.50
2019-05-13T19:06:44.158Z,13.40
2019-05-13T19:09:14.657Z,13.40
2019-05-13T19:11:45.189Z,13.30
2019-05-13T19:14:15.568Z,13.20
2019-05-13T19:16:46.243Z,13.20
2019-05-13T19:19:19.887Z,13.10
2019-05-13T19:21:51.003Z,13.10
2019-05-13T19:24:20.953Z,13.00
2019-05-13T19:26:52.135Z,12.90
2019-05-13T19:29:22.671Z,12.80
2019-05-13T19:31:53.235Z,12.80
2019-05-13T19:34:23.698Z,12.70
2019-05-13T19:36:54.155Z,12.70
2019-05-13T19:39:24.633Z,12.70
2019-05-13T19:41:55.071Z,12.60
2019-05-13T19:44:25.454Z,12.60
2019-05-13T19:46:55.902Z,12.50
2019-05-13T19:49:32.151Z,12.50
2019-05-13T19:51:58.455Z,12.40
2019-05-13T19:54:31.270Z,12.30
2019-05-13T19:57:01.535Z,12.30
2019-05-13T19:59:32.373Z,12.20
2019-05-13T20:02:03.277Z,12.20
2019-05-13T20:04:33.707Z,12.10
2019-05-13T20:07:04.555Z,12.10
2019-05-13T20:09:35.026Z,12.00
2019-05-13T20:12:05.478Z,12.00
2019-05-13T20:14:35.918Z,11.80
2019-05-13T20:17:06.338Z,11.90
2019-05-13T20:19:49.830Z,11.80
2019-05-13T20:22:11.531Z,11.80
2019-05-13T20:24:42.004Z,11.70
2019-05-13T20:27:12.853Z,11.70
2019-05-13T20:29:43.262Z,11.70
2019-05-13T20:32:13.685Z,11.70
2019-05-13T20:34:44.059Z,11.70
2019-05-13T20:37:14.506Z,11.60
2019-05-13T20:39:44.922Z,11.50
2019-05-13T20:42:15.368Z,11.50
2019-05-13T20:44:45.738Z,11.50
2019-05-13T20:47:16.183Z,11.50
2019-05-13T20:49:58.277Z,11.50
2019-05-13T20:52:18.739Z,11.40
2019-05-13T20:54:51.062Z,11.40
2019-05-13T20:57:22.174Z,11.30
2019-05-13T20:59:52.887Z,11.20
2019-05-13T21:02:23.310Z,11.30
2019-05-13T21:04:53.733Z,11.30
2019-05-13T21:07:24.187Z,11.30
2019-05-13T21:09:54.612Z,11.20
2019-05-13T21:12:25.080Z,11.30
2019-05-13T21:14:55.795Z,11.20
2019-05-13T21:17:26.217Z,11.10
2019-05-13T21:19:59.869Z,11.20
2019-05-13T21:22:28.863Z,11.20
2019-05-13T21:24:59.272Z,11.10
2019-05-13T21:27:31.432Z,11.20
2019-05-13T21:30:01.825Z,11.10
2019-05-13T21:32:32.227Z,11.10
2019-05-13T21:35:02.613Z,11.00
2019-05-13T21:37:33.019Z,11.00
2019-05-13T21:40:03.430Z,10.90
2019-05-13T21:42:33.887Z,10.90
2019-05-13T21:45:04.364Z,10.90
2019-05-13T21:47:34.858Z,10.80
2019-05-13T21:50:05.535Z,10.80
2019-05-13T21:52:36.074Z,10.70
2019-05-13T21:55:07.023Z,10.70
2019-05-13T21:57:37.438Z,10.70
2019-05-13T22:00:11.828Z,10.70
2019-05-13T22:02:42.246Z,10.60
2019-05-13T22:05:12.669Z,10.50
2019-05-13T22:07:43.326Z,10.60
2019-05-13T22:10:14.120Z,10.60
2019-05-13T22:12:44.581Z,10.50
2019-05-13T22:15:16.142Z,10.50
2019-05-13T22:17:46.612Z,10.50
2019-05-13T22:20:17.152Z,10.60
2019-05-13T22:22:47.995Z,10.60
2019-05-13T22:25:18.511Z,10.50
2019-05-13T22:27:48.933Z,10.40
2019-05-13T22:30:19.433Z,10.40
2019-05-13T22:32:52.164Z,10.40
2019-05-13T22:35:29.658Z,10.40
2019-05-13T22:38:01.695Z,10.40
2019-05-13T22:40:35.941Z,10.50
2019-05-13T22:43:06.449Z,10.40
2019-05-13T22:45:36.806Z,10.40
2019-05-13T22:48:07.205Z,10.30
2019-05-13T22:50:37.594Z,10.30
2019-05-13T22:53:08.098Z,10.30
2019-05-13T22:55:38.463Z,10.30
2019-05-13T22:58:08.887Z,10.20
2019-05-13T23:00:39.379Z,10.20
2019-05-13T23:03:09.769Z,10.20
2019-05-13T23:05:41.605Z,10.20
2019-05-13T23:08:12.158Z,10.20
2019-05-13T23:10:42.510Z,10.10
2019-05-13T23:13:16.479Z,10.10
2019-05-13T23:15:46.827Z,10.00
2019-05-13T23:18:17.222Z,10.00
2019-05-13T23:20:47.580Z,10.00
2019-05-13T23:23:17.983Z,10.00
2019-05-13T23:25:48.436Z,9.90
2019-05-13T23:28:18.800Z,10.00
2019-05-13T23:30:51.073Z,10.00
2019-05-13T23:33:22.012Z,10.00
2019-05-13T23:35:52.499Z,10.00
2019-05-13T23:38:22.933Z,10.00
2019-05-13T23:40:53.316Z,9.90
2019-05-13T23:43:25.123Z,9.90
2019-05-13T23:45:55.481Z,10.00
2019-05-13T23:48:25.862Z,9.90
2019-05-13T23:50:56.276Z,9.90
2019-05-13T23:53:26.651Z,9.90
2019-05-13T23:55:57.009Z,9.80
2019-05-13T23:58:27.362Z,9.80
